Terminal Aerodrome Forecast
Issued by NWS

Home | Current Version | Previous Version | Text Only | Print | Product List | Glossary On
Versions: 1 2 3 4 5 6 7 8 9 10 11 12 13 14 15 16 17 18 19 20 21 22 23 24 25 26
500
FTUS43 KDVN 242349
TAFBRL
TAF
KBRL 242349Z 2500/2524 30010KT 4SM -SN VCSH SCT013 BKN020 OVC027
      TEMPO 2500/2502 1SM -SN BR BKN004 OVC008
     FM250200 32015G25KT 4SM -SN BR OVC009
     FM250500 32016G27KT 6SM BR VCSH OVC015
     FM251000 30014G22KT P6SM SKC=

USA.gov is the U.S. government's official web portal to all federal, state and local government web resources and services.